Etusivu
METAR-TAF:

METAR-TAF

Lentoasemat :

In Salah, Algeria

Leveyspiiri: 27-15N, Pituuspiiri: 002-31E, korkeus merenpinnasta: 269 m

Tämänhetkinen sää

Tämä raportti tehtiin 56 minuuttia sitten, kello 11.00 UTC
Tuuli 4 kn lännestä/lounaasta
Lämpötila 31°C
Kosteus 12%
Ilmanpaine 1014 hPa
Näkyvyys 10 km tai enemmän
ei pilviä alle 1500 m:ssä eikä cumulonimbus-pilviä

METAR: DAUI 011100Z 24004KT CAVOK 31/M02 Q1014

Aika: 12:56 (11:56 UTC)

Sääennuste

Tämä raportti tehtiin 56 minuuttia sitten, kello 11.00 UTC
Ennuste voimassa 01. päivästä klo 12 UTC - 02. päivään klo 12 UTC
Tuuli 10 kn lännestä
Näkyvyys 10 km tai enemmän
ei pilviä alle 1500 m:ssä eikä cumulonimbus-pilviä
Tulossa
01. päivästä klo 21 UTC - 01. päivään klo 24 UTC
Tuuli 2 kn eri suunnista
Tulossa
02. päivästä klo 08 UTC - 02. päivään klo 11 UTC
Tuuli 12 kn lounaasta

TAF: DAUI 011100Z 0112/0212 26010KT CAVOK BECMG 0121/0124 VRB02KT BECMG 0208/0211 22012KT

Säähavainnot ja -ennusteet yli 4000 lentoasemalta (METAR- ja TAF-raportit).

Käytössä olevat sääasemat on merkitty karttaan keltaisilla ja punaisilla pisteillä.

Aseta hiiri pisteen päälle nähdäksesi sääaseman nimen.

Klikkaa sitten nähdäksesi säähavainnot ja -ennusteet.

Kartan vaihtaminen: klikkaa mustalla rastilla varustettuja vihreitä pisteitä, niin voit zoomata sisään; viivalla varustettua vihreää pistettä, niin voit zoomata ulos tai vihreitä nuolia, niin pääset viereisille kartoille.


METAR-TAF: